Aérodrome :
LOGIN :

S'inscrire | Disclaimer

   EN    FR    IT 

 










Légende :    VFR   VFR Marginal   IFR   IFR Intensif   IFR Très Intensif
Visi : 
Plafond : 
>= 8 km
>= 3000ft
5 à 8 km
1000 à 3000 ft
1500m à 5 km
500 à 1000 ft
800 à 1500m
200 à 500 ft
< 800m
< 200 ft
Symboles :   Orages  Brouillard  Fortes neiges  Fortes précipitations  Vent > 20 kt
SIGMETs :   Divers  Orages  Givrage  Turbulence  Onde Orograph.  Cendres Volcan.






- Altitude de l'aérodrome : 15 ft
- Code IATA : FCO


LIRF - Roma Leonardo da Vinci Fiumicino

DERNIER METAR :
  • 261420Z 27016KT CAVOK 23/15 Q1017 NOSIG

METARs EXPIRÉS :
  • 261350Z 28016KT 9999 FEW035 23/15 Q1017 NOSIG
  • 261320Z 28013KT 250V310 9999 FEW035 23/12 Q1017 NOSIG
  • 261250Z 28013KT 9999 FEW035 24/13 Q1017 NOSIG
  • 261220Z 28013KT 9999 FEW025 24/14 Q1017 NOSIG
  • 261150Z 27014KT 9999 FEW020 24/11 Q1017 NOSIG
  • 261120Z 27012KT 9999 FEW020 23/14 Q1017 NOSIG
  • 261050Z 27011KT 9999 FEW020 23/13 Q1018 NOSIG
  • 261020Z 26010KT 9999 FEW020 23/14 Q1017 NOSIG
  • 260950Z 26009KT 230V290 9999 FEW020 23/15 Q1017 NOSIG

TAF TAF LIRF
Valide du 26 à 12h jusqu'au 27 à 18h UTC


261100Z 2612/2718 30015KT CAVOK
BECMG 2619/2621 VRB05KT
BECMG 2709/2711 27012KT



MET'MAP, la Météo Aéronautique d'un coup d'oeil ! - Copyright ORBIFLY Décembre 2007 - Disclaimer

ORBIFLY MET'MAP TEAM :

Programmation & Développement : Alexandra Zaïnal
Sur une idée originale de : Baudouin d'Aumeries
Soutien technique & logistique : Manuel Goepfert
Assistance : Marc-Olivier Méhu




SOURCES & CREDITS :

   NOAA